Time;durP1;ratioP1;P1;durP2;ratioP2;P2;SDS_P1;SDS_P2;PMS_P1;PMS_P2;Temp;Humidity;BMP_temperature;BMP_pressure;BME280_temperature;BME280_humidity;BME280_pressure;Samples;Min_cycle;Max_cycle;Signal;HPM_P1;HPM_P2
2023/08/20 00:00:07;;;;;;;17.65;12.13;;;;;;;24.28;50.98;99496.13;5015368;28;20037;-84
2023/08/20 00:02:34;;;;;;;15.77;10.80;;;;;;;23.95;52.13;99496.53;5015012;28;20127;-83
2023/08/20 00:05:02;;;;;;;12.27;10.98;;;;;;;23.67;52.64;99504.19;5015318;28;20127;-84
2023/08/20 00:07:28;;;;;;;15.73;11.05;;;;;;;23.87;52.23;99509.25;5008995;28;20508;-84
2023/08/20 00:09:54;;;;;;;15.02;10.57;;;;;;;23.71;52.40;99504.13;5013341;28;20033;-84
2023/08/20 00:12:19;;;;;;;20.10;11.55;;;;;;;23.61;52.57;99502.22;4998835;28;20393;-84
2023/08/20 00:14:56;;;;;;;12.55;10.77;;;;;;;23.89;51.92;99497.41;5006502;28;20409;-84
2023/08/20 00:17:24;;;;;;;11.57;10.23;;;;;;;23.58;52.39;99488.78;4994453;28;20030;-84
2023/08/20 00:19:50;;;;;;;14.35;10.20;;;;;;;23.31;53.44;99480.91;4995317;28;20512;-84
2023/08/20 00:22:17;;;;;;;16.88;10.43;;;;;;;23.45;53.07;99491.38;4998712;28;20037;-83
2023/08/20 00:24:43;;;;;;;12.15;10.68;;;;;;;23.07;53.87;99480.69;5031531;28;20036;-83
2023/08/20 00:27:08;;;;;;;14.93;9.85;;;;;;;23.00;54.13;99484.41;5024687;28;20033;-83
2023/08/20 00:29:34;;;;;;;15.70;9.50;;;;;;;22.77;55.10;99485.81;5029746;28;20029;-83
2023/08/20 00:31:59;;;;;;;14.30;10.70;;;;;;;22.61;55.85;99471.28;5023210;28;20029;-83
2023/08/20 00:34:25;;;;;;;14.05;9.38;;;;;;;22.62;55.40;99470.03;5014601;28;20033;-83
2023/08/20 00:36:50;;;;;;;13.20;10.55;;;;;;;22.52;56.15;99471.75;5014277;28;20124;-84
2023/08/20 00:39:15;;;;;;;14.85;10.10;;;;;;;22.81;55.31;99475.19;5014573;28;20080;-84
2023/08/20 00:41:41;;;;;;;12.10;9.10;;;;;;;22.83;55.40;99478.44;5013472;28;20048;-83
2023/08/20 00:44:06;;;;;;;13.85;9.50;;;;;;;22.94;54.82;99474.69;5010317;28;20472;-84
2023/08/20 00:46:32;;;;;;;14.02;9.20;;;;;;;22.83;55.33;99478.44;5028027;28;20029;-83
2023/08/20 00:48:58;;;;;;;11.73;9.38;;;;;;;22.91;55.43;99478.38;5032128;28;20052;-83
2023/08/20 00:51:24;;;;;;;23.38;10.18;;;;;;;23.12;54.25;99485.94;5011737;28;20167;-83
2023/08/20 00:53:50;;;;;;;12.80;9.00;;;;;;;23.08;54.42;99473.75;5013856;28;20083;-83
2023/08/20 00:56:16;;;;;;;10.20;8.55;;;;;;;23.25;53.96;99472.78;5014753;28;20037;-84
2023/08/20 00:58:42;;;;;;;14.15;8.65;;;;;;;23.16;54.52;99466.75;5013121;28;20029;-83
2023/08/20 01:01:07;;;;;;;16.50;9.38;;;;;;;22.96;54.93;99472.22;5014193;28;20033;-83
2023/08/20 01:03:33;;;;;;;22.65;9.57;;;;;;;23.04;54.82;99465.22;5008295;28;20029;-84
2023/08/20 01:06:16;;;;;;;10.25;8.80;;;;;;;22.71;55.55;99467.53;5014324;28;20033;-83
2023/08/20 01:08:45;;;;;;;10.70;8.38;;;;;;;22.56;55.92;99469.66;5014076;28;20484;-84
2023/08/20 01:11:17;;;;;;;13.60;8.88;;;;;;;22.56;55.87;99450.53;5014193;28;20037;-84
2023/08/20 01:13:43;;;;;;;16.50;9.70;;;;;;;22.55;56.04;99453.81;5012668;28;20091;-83
2023/08/20 01:16:08;;;;;;;17.45;8.68;;;;;;;22.35;56.35;99457.16;5030642;28;20033;-83
2023/08/20 01:18:34;;;;;;;12.02;8.98;;;;;;;22.49;56.19;99467.69;5031669;28;20056;-83
2023/08/20 01:21:05;;;;;;;12.45;8.95;;;;;;;22.32;56.31;99451.47;5013982;28;20029;-83
2023/08/20 01:23:37;;;;;;;14.65;8.70;;;;;;;22.21;56.99;99460.09;5013363;28;20029;-83
2023/08/20 01:26:31;;;;;;;11.82;8.50;;;;;;;22.14;56.84;99438.16;5031636;28;20030;-83
2023/08/20 01:28:56;;;;;;;15.70;9.13;;;;;;;22.34;56.30;99443.34;5013442;28;20472;-83
2023/08/20 01:31:23;;;;;;;11.30;8.52;;;;;;;22.53;56.05;99453.41;5029425;28;20056;-83
2023/08/20 01:33:49;;;;;;;9.80;8.07;;;;;;;22.90;55.14;99457.63;5009915;28;20055;-87
2023/08/20 01:36:14;;;;;;;9.73;8.63;;;;;;;23.06;54.42;99448.50;5031982;28;20488;-87
2023/08/20 01:38:39;;;;;;;10.10;7.93;;;;;;;23.23;53.76;99445.91;5014264;28;20037;-87
2023/08/20 01:41:05;;;;;;;10.52;8.40;;;;;;;23.22;53.74;99447.13;5014144;28;20029;-87
2023/08/20 01:43:30;;;;;;;14.45;8.80;;;;;;;23.24;54.12;99451.19;5013921;28;20056;-86
2023/08/20 01:45:56;;;;;;;10.18;8.27;;;;;;;23.36;53.92;99454.78;5013609;28;20124;-87
2023/08/20 01:48:22;;;;;;;12.55;9.07;;;;;;;23.51;53.37;99449.72;5006695;28;20029;-87
2023/08/20 01:50:47;;;;;;;17.45;9.00;;;;;;;23.54;53.28;99449.69;5030414;28;20416;-87
2023/08/20 01:53:12;;;;;;;14.55;8.82;;;;;;;23.59;52.98;99439.84;5013756;28;20018;-88
2023/08/20 01:55:38;;;;;;;23.63;9.20;;;;;;;23.56;53.25;99435.00;5031534;28;20519;-87
2023/08/20 01:58:04;;;;;;;16.98;9.10;;;;;;;23.38;53.94;99433.13;5014157;28;20491;-88
2023/08/20 02:00:30;;;;;;;15.85;9.43;;;;;;;23.25;54.21;99443.44;5013617;28;20535;-87
2023/08/20 02:02:56;;;;;;;12.95;9.68;;;;;;;23.31;53.82;99441.78;5014173;28;20033;-87
2023/08/20 02:05:21;;;;;;;14.38;9.20;;;;;;;23.25;54.16;99444.25;5030998;28;20025;-87
2023/08/20 02:07:47;;;;;;;12.40;9.95;;;;;;;23.21;54.19;99432.06;5014012;28;20114;-87
2023/08/20 02:10:12;;;;;;;12.73;10.05;;;;;;;23.27;53.74;99435.28;5013343;28;20109;-87
2023/08/20 02:12:38;;;;;;;14.38;9.48;;;;;;;23.03;54.60;99435.06;5013668;28;20069;-87
2023/08/20 02:15:04;;;;;;;13.27;9.90;;;;;;;22.97;54.93;99433.94;5013136;28;20022;-87
2023/08/20 02:17:29;;;;;;;24.67;9.55;;;;;;;23.08;54.76;99437.50;5013882;28;20072;-87
2023/08/20 02:19:55;;;;;;;15.30;9.23;;;;;;;23.11;54.44;99438.69;5013913;28;20024;-88
2023/08/20 02:22:20;;;;;;;13.32;9.35;;;;;;;22.97;54.57;99423.31;5013740;28;20542;-87
2023/08/20 02:24:46;;;;;;;20.33;9.60;;;;;;;22.95;54.82;99436.38;5012966;28;20022;-86
2023/08/20 02:27:12;;;;;;;15.13;8.20;;;;;;;22.84;55.25;99437.28;5013840;28;20021;-87
2023/08/20 02:29:37;;;;;;;18.90;8.98;;;;;;;22.47;56.21;99435.09;5013044;28;20021;-87
2023/08/20 02:32:03;;;;;;;14.50;9.60;;;;;;;22.38;56.43;99438.41;5010440;28;20067;-87
2023/08/20 02:34:28;;;;;;;15.63;9.60;;;;;;;22.19;56.63;99437.69;5027311;28;20036;-87
2023/08/20 02:36:54;;;;;;;13.38;8.57;;;;;;;22.05;57.47;99438.63;5013643;28;20025;-87
2023/08/20 02:39:20;;;;;;;14.35;9.35;;;;;;;21.88;58.04;99434.63;5013584;28;20032;-87
2023/08/20 02:41:45;;;;;;;11.77;8.77;;;;;;;22.14;57.62;99441.00;5014514;28;20111;-87
2023/08/20 02:44:11;;;;;;;14.38;9.27;;;;;;;22.28;56.77;99443.75;5016061;28;20029;-86
2023/08/20 02:46:38;;;;;;;12.60;9.57;;;;;;;22.52;56.50;99448.94;5001654;28;20025;-87
2023/08/20 02:49:03;;;;;;;12.13;9.13;;;;;;;22.55;55.90;99448.91;5017026;28;20411;-87
2023/08/20 02:51:29;;;;;;;17.17;9.93;;;;;;;22.39;56.33;99434.34;5017288;28;20021;-87
2023/08/20 02:53:54;;;;;;;12.27;8.85;;;;;;;22.38;56.03;99433.50;5017049;28;20025;-87
2023/08/20 02:56:20;;;;;;;15.25;8.85;;;;;;;22.38;56.31;99444.91;5017121;28;20033;-87
2023/08/20 02:58:46;;;;;;;17.02;9.02;;;;;;;21.98;57.32;99442.31;5034206;28;20099;-87
2023/08/20 03:01:21;;;;;;;10.25;9.07;;;;;;;22.13;57.28;99450.78;5027406;28;20055;-86
2023/08/20 03:03:46;;;;;;;13.80;9.50;;;;;;;22.37;56.29;99443.28;5015564;28;20042;-87
2023/08/20 03:06:12;;;;;;;22.80;9.55;;;;;;;22.56;55.75;99453.41;4997394;28;20467;-88
2023/08/20 03:08:38;;;;;;;18.30;9.30;;;;;;;22.58;55.60;99452.97;5015010;28;20030;-87
2023/08/20 03:11:03;;;;;;;17.77;10.80;;;;;;;22.60;55.41;99449.69;4997398;28;20029;-88
2023/08/20 03:13:28;;;;;;;29.33;9.32;;;;;;;22.59;55.44;99448.88;5006582;28;20028;-87
2023/08/20 03:15:54;;;;;;;43.72;11.90;;;;;;;22.51;55.71;99450.97;5016052;28;20032;-86
2023/08/20 03:18:19;;;;;;;43.83;12.15;;;;;;;22.42;56.05;99448.56;5013331;28;20033;-87
2023/08/20 03:20:45;;;;;;;15.57;10.65;;;;;;;22.20;56.66;99441.38;5014565;28;20036;-88
2023/08/20 03:23:10;;;;;;;15.55;9.63;;;;;;;22.12;57.29;99449.16;5004058;28;20022;-87
2023/08/20 03:25:36;;;;;;;15.48;10.27;;;;;;;22.48;55.92;99446.13;5016492;28;20030;-87
2023/08/20 03:28:01;;;;;;;20.33;10.35;;;;;;;22.24;56.36;99434.44;5016645;28;20029;-87
2023/08/20 03:30:27;;;;;;;14.75;10.40;;;;;;;22.16;56.75;99435.69;5012358;28;20053;-87
2023/08/20 03:32:53;;;;;;;32.85;11.07;;;;;;;22.42;56.15;99447.75;5023154;28;20029;-87
2023/08/20 03:35:18;;;;;;;19.70;10.48;;;;;;;22.62;55.39;99444.38;5027468;28;20021;-87
2023/08/20 03:37:43;;;;;;;17.67;10.02;;;;;;;22.88;55.11;99447.84;5032875;28;20087;-87
2023/08/20 03:40:09;;;;;;;27.50;11.80;;;;;;;22.98;55.19;99452.66;5033904;28;20524;-87
2023/08/20 03:42:35;;;;;;;28.20;10.93;;;;;;;22.93;56.42;99447.41;5029432;28;20356;-88
2023/08/20 03:45:00;;;;;;;22.83;11.55;;;;;;;22.84;56.57;99437.28;5016012;28;20044;-87
2023/08/20 03:47:26;;;;;;;15.70;10.88;;;;;;;22.89;57.14;99455.16;5018282;28;20028;-88
2023/08/20 03:49:52;;;;;;;24.13;9.95;;;;;;;22.89;56.94;99453.13;5024383;28;20482;-82
2023/08/20 03:52:17;;;;;;;21.85;11.05;;;;;;;22.68;56.95;99437.81;5015374;28;20429;-83
2023/08/20 03:54:43;;;;;;;61.47;13.45;;;;;;;22.83;56.92;99463.34;5013762;28;20032;-83
2023/08/20 03:57:08;;;;;;;25.75;10.93;;;;;;;22.90;56.76;99466.16;5015641;28;20518;-83
2023/08/20 03:59:34;;;;;;;26.05;10.43;;;;;;;22.79;57.11;99471.94;5015453;28;20459;-82
2023/08/20 04:01:59;;;;;;;19.05;12.27;;;;;;;22.92;56.77;99471.44;5010968;28;20055;-82
2023/08/20 04:04:25;;;;;;;27.95;11.05;;;;;;;22.91;56.81;99470.63;5009225;28;20026;-82
2023/08/20 04:06:51;;;;;;;25.60;11.30;;;;;;;22.77;56.42;99468.69;5031417;28;20091;-83
2023/08/20 04:09:16;;;;;;;35.20;11.95;;;;;;;22.61;57.01;99457.81;5003884;28;20481;-83
2023/08/20 04:11:42;;;;;;;40.92;10.75;;;;;;;22.40;56.97;99455.91;5010658;28;20022;-83
2023/08/20 04:14:10;;;;;;;20.38;10.52;;;;;;;22.04;57.88;99461.78;5014823;28;20121;-82
2023/08/20 04:16:35;;;;;;;17.85;10.40;;;;;;;22.27;57.43;99458.44;5021136;28;20400;-83
2023/08/20 04:19:01;;;;;;;20.23;10.70;;;;;;;22.43;56.96;99460.75;5004039;28;20030;-82
2023/08/20 04:21:27;;;;;;;27.17;11.18;;;;;;;22.47;57.00;99457.88;4995500;28;20489;-83
2023/08/20 04:23:52;;;;;;;21.90;9.70;;;;;;;22.49;56.68;99467.69;4995413;28;20025;-83
2023/08/20 04:26:18;;;;;;;12.38;9.50;;;;;;;22.17;57.58;99471.50;4999938;28;20408;-82
2023/08/20 04:28:44;;;;;;;12.10;8.70;;;;;;;22.06;58.11;99465.03;5014785;28;20029;-83
2023/08/20 04:31:09;;;;;;;18.08;10.07;;;;;;;22.01;58.08;99458.56;5008490;28;20113;-82
2023/08/20 04:33:35;;;;;;;29.77;11.20;;;;;;;21.74;59.29;99459.09;5008663;28;20030;-82
2023/08/20 04:36:00;;;;;;;16.63;11.48;;;;;;;21.79;59.10;99465.56;5011594;28;20087;-82
2023/08/20 04:38:26;;;;;;;16.85;10.70;;;;;;;21.85;59.01;99472.47;5007325;28;20022;-82
2023/08/20 04:40:51;;;;;;;17.70;10.60;;;;;;;21.72;58.87;99455.84;5028756;28;20083;-82
2023/08/20 04:43:17;;;;;;;18.25;10.57;;;;;;;21.67;59.24;99476.16;5011704;28;20033;-82
2023/08/20 04:45:42;;;;;;;14.70;9.95;;;;;;;21.62;59.75;99468.03;5010806;28;20124;-82
2023/08/20 04:48:08;;;;;;;14.93;9.85;;;;;;;21.59;60.11;99471.69;5009036;28;20484;-81
2023/08/20 04:50:34;;;;;;;19.58;10.52;;;;;;;21.69;59.90;99467.22;5024523;28;20030;-81
2023/08/20 04:53:00;;;;;;;17.45;9.77;;;;;;;21.99;58.75;99471.56;5013436;28;20037;-83
2023/08/20 04:55:26;;;;;;;54.35;12.35;;;;;;;22.13;58.43;99470.72;5013178;28;20447;-82
2023/08/20 04:57:52;;;;;;;38.75;12.32;;;;;;;22.02;58.80;99457.31;5012643;28;20033;-83
2023/08/20 05:00:17;;;;;;;22.77;11.65;;;;;;;22.02;58.78;99470.75;5031057;28;20069;-82
2023/08/20 05:02:43;;;;;;;15.23;10.18;;;;;;;21.59;60.02;99457.44;5019824;28;20503;-82
2023/08/20 05:05:09;;;;;;;24.63;10.27;;;;;;;21.72;59.82;99467.22;4997037;28;20034;-82
2023/08/20 05:07:34;;;;;;;14.63;10.13;;;;;;;21.88;59.80;99466.72;5005896;28;20103;-82
2023/08/20 05:10:00;;;;;;;15.48;10.32;;;;;;;21.92;59.81;99463.88;5010889;28;20026;-82
2023/08/20 05:12:25;;;;;;;12.38;9.98;;;;;;;21.94;60.09;99460.63;5003923;28;20021;-81
2023/08/20 05:14:51;;;;;;;23.70;11.02;;;;;;;21.98;60.12;99467.09;5031769;28;20026;-82
2023/08/20 05:17:16;;;;;;;15.98;10.98;;;;;;;22.14;59.67;99483.72;5016211;28;20025;-80
2023/08/20 05:19:42;;;;;;;17.50;11.50;;;;;;;21.84;60.63;99485.03;5029803;28;20021;-82
2023/08/20 05:22:07;;;;;;;19.02;11.27;;;;;;;21.40;62.10;99490.84;5007390;28;20030;-81
2023/08/20 05:24:33;;;;;;;15.05;11.02;;;;;;;21.55;62.08;99491.63;5005310;28;20021;-81
2023/08/20 05:27:09;;;;;;;21.33;12.43;;;;;;;21.61;62.40;99494.88;5013715;28;20432;-80
2023/08/20 05:29:36;;;;;;;14.95;10.43;;;;;;;21.41;62.85;99506.69;5012013;28;20029;-80
2023/08/20 05:32:01;;;;;;;15.73;10.93;;;;;;;21.53;62.47;99496.91;5018039;28;20458;-81
2023/08/20 05:34:27;;;;;;;12.25;10.90;;;;;;;21.68;62.31;99492.03;5014211;28;20032;-81
2023/08/20 05:36:52;;;;;;;19.55;11.52;;;;;;;21.69;62.53;99496.47;5028209;28;20025;-80
2023/08/20 05:39:18;;;;;;;28.25;12.82;;;;;;;21.94;62.10;99497.63;5006574;28;20029;-81
2023/08/20 05:41:43;;;;;;;16.70;12.30;;;;;;;21.87;62.16;99492.78;5000670;28;20046;-81
2023/08/20 05:44:10;;;;;;;15.07;11.77;;;;;;;21.93;61.74;99490.31;5012605;28;20140;-81
2023/08/20 05:46:35;;;;;;;19.85;11.18;;;;;;;21.97;61.86;99482.56;5013498;28;20029;-81
2023/08/20 05:49:01;;;;;;;20.05;12.40;;;;;;;21.72;63.24;99486.31;5031344;28;20032;-80
2023/08/20 05:51:26;;;;;;;21.67;12.20;;;;;;;21.93;62.05;99478.94;5009457;28;20404;-80
2023/08/20 05:53:52;;;;;;;16.20;11.98;;;;;;;22.03;61.62;99486.63;5000602;28;20036;-83
2023/08/20 05:56:17;;;;;;;16.52;12.18;;;;;;;22.03;61.53;99486.63;5011237;28;20033;-82
2023/08/20 05:58:43;;;;;;;17.70;11.88;;;;;;;22.28;61.39;99495.03;4991854;28;20033;-81
2023/08/20 06:01:08;;;;;;;19.42;11.63;;;;;;;22.07;61.58;99492.28;5002848;28;20492;-82
2023/08/20 06:03:34;;;;;;;19.13;11.88;;;;;;;22.21;61.61;99497.94;5019709;28;20037;-82
2023/08/20 06:05:59;;;;;;;15.70;11.75;;;;;;;22.35;61.11;99504.78;4990369;28;20030;-81
2023/08/20 06:08:25;;;;;;;14.48;10.57;;;;;;;22.41;60.87;99508.81;5027015;28;20026;-81
2023/08/20 06:10:51;;;;;;;21.33;11.57;;;;;;;22.51;60.30;99510.03;4996794;28;20104;-81
2023/08/20 06:13:16;;;;;;;21.67;11.60;;;;;;;22.58;59.87;99495.72;5002766;28;20025;-82
2023/08/20 06:15:42;;;;;;;13.13;11.07;;;;;;;22.77;59.06;99513.50;5006714;28;20025;-81
2023/08/20 06:18:07;;;;;;;16.23;11.77;;;;;;;22.83;58.96;99518.34;5031448;28;20105;-82
2023/08/20 06:20:33;;;;;;;20.67;12.05;;;;;;;22.80;58.87;99499.22;5014061;28;20032;-82
2023/08/20 06:22:58;;;;;;;25.30;12.20;;;;;;;23.01;58.39;99520.25;5015179;28;20377;-82
2023/08/20 06:25:23;;;;;;;13.35;10.65;;;;;;;23.10;58.13;99516.91;5007336;28;20029;-81
2023/08/20 06:27:49;;;;;;;17.58;10.90;;;;;;;23.24;57.35;99513.97;5009273;28;20017;-81
2023/08/20 06:30:14;;;;;;;16.70;10.75;;;;;;;23.25;56.49;99509.03;5005264;28;20029;-81
2023/08/20 06:32:40;;;;;;;13.30;10.90;;;;;;;23.31;56.45;99518.81;5005346;28;20095;-81
2023/08/20 06:35:06;;;;;;;17.45;11.20;;;;;;;23.58;56.16;99525.88;5011009;28;20026;-81
2023/08/20 06:37:31;;;;;;;15.80;9.90;;;;;;;23.62;55.30;99527.47;5006150;28;20026;-81
2023/08/20 06:39:57;;;;;;;12.40;10.05;;;;;;;23.74;54.65;99519.59;5011786;28;20095;-81
2023/08/20 06:42:22;;;;;;;13.02;9.70;;;;;;;23.76;54.35;99523.66;5003872;28;20046;-81
2023/08/20 06:44:48;;;;;;;21.33;11.07;;;;;;;23.69;54.64;99521.69;5011590;28;20503;-82
2023/08/20 06:47:14;;;;;;;20.45;10.90;;;;;;;23.84;53.97;99508.09;5018301;28;20059;-80
2023/08/20 06:49:40;;;;;;;20.38;13.63;;;;;;;24.12;53.06;99508.16;5017397;28;20604;-81
2023/08/20 06:52:06;;;;;;;19.88;11.93;;;;;;;24.39;52.54;99524.59;5017612;28;20067;-80
2023/08/20 06:54:31;;;;;;;17.90;13.05;;;;;;;24.44;51.71;99517.56;5018336;28;20057;-81
2023/08/20 06:56:56;;;;;;;11.52;10.27;;;;;;;24.57;51.69;99523.50;5016796;28;20037;-81
2023/08/20 06:59:23;;;;;;;38.97;21.48;;;;;;;24.43;52.61;99491.03;5014952;28;20511;-80
2023/08/20 07:01:48;;;;;;;21.02;11.23;;;;;;;24.86;51.46;99525.97;5024992;28;20088;-81
2023/08/20 07:04:14;;;;;;;13.23;10.23;;;;;;;25.00;49.87;99522.91;5011924;28;20111;-82
2023/08/20 07:06:39;;;;;;;18.63;11.90;;;;;;;25.23;49.82;99516.38;5008839;28;20029;-80
2023/08/20 07:09:05;;;;;;;24.67;12.32;;;;;;;25.46;48.92;99533.97;5017631;28;20025;-81
2023/08/20 07:11:30;;;;;;;12.63;10.35;;;;;;;25.21;49.13;99527.44;5020683;28;20100;-80
2023/08/20 07:13:56;;;;;;;13.40;9.90;;;;;;;25.44;49.10;99533.59;5031397;28;20033;-80
2023/08/20 07:16:21;;;;;;;18.25;9.85;;;;;;;25.85;47.75;99523.06;5009483;28;20466;-81
2023/08/20 07:18:47;;;;;;;17.27;9.95;;;;;;;26.06;47.13;99527.53;5013528;28;20029;-81
2023/08/20 07:21:12;;;;;;;10.70;9.55;;;;;;;26.24;47.10;99532.94;5013685;28;20037;-80
2023/08/20 07:23:38;;;;;;;18.25;11.65;;;;;;;26.30;46.76;99530.34;5029222;28;20055;-80
2023/08/20 07:26:09;;;;;;;19.55;12.10;;;;;;;26.74;45.90;99533.88;5028898;28;20033;-81
2023/08/20 07:31:20;;;;;;;14.40;10.13;;;;;;;26.69;45.39;99533.59;5029046;28;20535;-80
2023/08/20 07:33:47;;;;;;;14.88;10.57;;;;;;;26.73;45.74;99532.28;5012000;28;20064;-80
2023/08/20 07:36:13;;;;;;;12.90;9.38;;;;;;;26.89;45.16;99543.00;5028730;28;20029;-80
2023/08/20 07:38:41;;;;;;;12.30;10.02;;;;;;;26.47;45.06;99534.09;5029975;28;20035;-80
2023/08/20 07:41:07;;;;;;;12.35;10.40;;;;;;;27.08;46.50;99525.34;5009824;28;20033;-80
2023/08/20 07:43:32;;;;;;;28.60;11.68;;;;;;;27.42;44.66;99524.09;5027716;28;20025;-81
2023/08/20 07:45:58;;;;;;;18.70;10.68;;;;;;;27.40;44.35;99526.59;5036521;28;20032;-80
2023/08/20 07:48:23;;;;;;;19.13;12.77;;;;;;;27.67;43.26;99531.25;5012283;28;20132;-80
2023/08/20 07:50:48;;;;;;;12.38;9.88;;;;;;;27.60;43.40;99530.16;5005623;28;20037;-80
2023/08/20 07:53:14;;;;;;;12.20;10.40;;;;;;;27.16;43.98;99521.06;5009705;28;20137;-80
2023/08/20 07:55:39;;;;;;;25.55;10.68;;;;;;;27.47;43.17;99529.25;5009269;28;20516;-80
2023/08/20 07:58:05;;;;;;;14.45;9.82;;;;;;;27.67;42.71;99514.81;5011020;28;20033;-81
2023/08/20 08:00:30;;;;;;;15.57;10.55;;;;;;;28.10;43.21;99518.53;5009283;28;20038;-80
2023/08/20 08:02:56;;;;;;;14.20;9.90;;;;;;;27.84;41.88;99529.16;5016682;28;20025;-85
2023/08/20 08:05:21;;;;;;;20.83;9.23;;;;;;;28.28;41.40;99520.91;5005138;28;20476;-85
2023/08/20 08:07:47;;;;;;;17.40;9.52;;;;;;;28.66;40.17;99513.59;5013586;28;20029;-85
2023/08/20 08:10:12;;;;;;;13.27;9.00;;;;;;;28.68;40.44;99513.94;5013554;28;20040;-85
2023/08/20 08:12:38;;;;;;;12.30;9.00;;;;;;;28.53;39.73;99519.31;5045360;28;20021;-86
2023/08/20 08:15:03;;;;;;;13.90;7.80;;;;;;;28.70;39.03;99519.25;5020452;28;20080;-86
2023/08/20 08:17:29;;;;;;;10.55;7.97;;;;;;;29.13;39.35;99519.94;5010114;28;20129;-85
2023/08/20 08:19:55;;;;;;;14.15;8.43;;;;;;;29.45;38.23;99511.50;5015077;28;20087;-83
2023/08/20 08:22:20;;;;;;;13.40;7.78;;;;;;;29.85;37.55;99513.75;5012184;28;20504;-84
2023/08/20 08:24:46;;;;;;;23.10;8.95;;;;;;;30.21;38.12;99514.53;5029674;28;20028;-85
2023/08/20 08:27:11;;;;;;;18.05;9.02;;;;;;;30.42;37.25;99517.88;5015421;28;20025;-85
2023/08/20 08:29:37;;;;;;;38.05;10.52;;;;;;;30.64;36.81;99515.75;5015363;28;20112;-86
2023/08/20 08:32:02;;;;;;;17.80;7.65;;;;;;;30.70;36.27;99520.94;5015511;28;20030;-86
2023/08/20 08:34:28;;;;;;;12.40;6.70;;;;;;;30.73;35.16;99503.47;5014687;28;20480;-86
2023/08/20 08:36:53;;;;;;;13.18;7.88;;;;;;;30.84;36.23;99510.91;5014592;28;20033;-86
2023/08/20 08:39:19;;;;;;;19.35;8.73;;;;;;;30.90;35.76;99509.78;5014421;28;20048;-85
2023/08/20 08:41:49;;;;;;;8.05;7.20;;;;;;;30.78;34.82;99513.59;5051594;28;20075;-85
2023/08/20 08:44:15;;;;;;;18.17;8.02;;;;;;;30.77;35.41;99520.63;5019359;28;20036;-85
2023/08/20 08:46:41;;;;;;;11.43;6.95;;;;;;;30.78;34.82;99516.50;5005988;28;20390;-85
2023/08/20 08:49:08;;;;;;;10.70;6.45;;;;;;;30.84;34.83;99513.78;5005058;28;20044;-85
2023/08/20 08:51:35;;;;;;;12.82;6.70;;;;;;;30.79;35.08;99524.66;5006222;28;20038;-85
2023/08/20 08:54:02;;;;;;;11.98;7.25;;;;;;;30.71;35.00;99517.59;5010491;28;20076;-85
2023/08/20 08:56:27;;;;;;;12.57;7.47;;;;;;;30.23;35.70;99503.34;5008704;28;20489;-85
2023/08/20 08:58:54;;;;;;;9.77;7.40;;;;;;;30.38;36.06;99518.00;5014632;28;20112;-85
2023/08/20 09:01:20;;;;;;;8.32;7.20;;;;;;;30.70;35.17;99515.16;5014528;28;20033;-86
2023/08/20 09:03:47;;;;;;;7.63;6.72;;;;;;;30.50;35.20;99511.34;5014403;28;20041;-85
2023/08/20 09:06:12;;;;;;;8.88;7.18;;;;;;;30.82;35.22;99496.94;5032122;28;20077;-85
2023/08/20 09:08:38;;;;;;;15.60;8.10;;;;;;;30.90;35.30;99501.13;5011655;28;20492;-85
2023/08/20 09:11:03;;;;;;;9.63;6.80;;;;;;;30.22;35.08;99507.50;5030505;28;20035;-85
2023/08/20 09:13:36;;;;;;;9.77;6.85;;;;;;;29.67;35.98;99511.53;5025563;28;20412;-85
2023/08/20 09:16:07;;;;;;;12.38;7.07;;;;;;;30.08;34.80;99509.66;5014079;28;20139;-86
2023/08/20 09:18:46;;;;;;;16.90;7.45;;;;;;;30.53;35.24;99492.31;5012947;28;20029;-85
2023/08/20 09:21:13;;;;;;;11.43;7.47;;;;;;;30.72;34.87;99481.66;5012085;28;20033;-85
2023/08/20 09:23:39;;;;;;;13.80;6.78;;;;;;;31.03;34.43;99500.22;5009384;28;20017;-85
2023/08/20 09:26:06;;;;;;;10.63;7.43;;;;;;;31.20;33.99;99480.53;5005510;28;20030;-85
2023/08/20 09:28:43;;;;;;;11.48;6.40;;;;;;;31.40;33.51;99497.44;5007415;28;20158;-84
2023/08/20 09:31:09;;;;;;;8.32;7.10;;;;;;;31.57;32.71;99497.94;5009658;28;20051;-85
2023/08/20 09:33:35;;;;;;;9.68;6.38;;;;;;;31.60;32.57;99507.69;5006905;28;20038;-85
2023/08/20 09:36:03;;;;;;;7.75;6.68;;;;;;;31.76;32.38;99503.69;5011004;28;20045;-86
2023/08/20 09:38:28;;;;;;;6.90;6.25;;;;;;;32.04;32.80;99498.72;5009732;28;20401;-84
2023/08/20 09:40:56;;;;;;;11.95;6.47;;;;;;;32.18;31.24;99484.88;5012074;28;20044;-85
2023/08/20 09:43:27;;;;;;;10.98;6.55;;;;;;;32.43;31.97;99491.59;4993323;28;20061;-86
2023/08/20 09:45:55;;;;;;;7.18;6.18;;;;;;;32.35;31.55;99491.97;5008251;28;20092;-86
2023/08/20 09:48:21;;;;;;;12.75;10.00;;;;;;;32.51;31.89;99484.19;5027726;28;20038;-86
2023/08/20 09:50:48;;;;;;;22.25;8.38;;;;;;;32.65;31.39;99467.41;5007022;28;20519;-84
2023/08/20 09:53:14;;;;;;;6.35;5.65;;;;;;;32.63;30.53;99483.16;5009436;28;20041;-84
2023/08/20 09:55:42;;;;;;;14.35;8.90;;;;;;;32.85;30.95;99476.31;5003945;28;20029;-84
2023/08/20 09:58:07;;;;;;;8.13;5.43;;;;;;;32.67;30.23;99476.41;5012027;28;20036;-85
2023/08/20 10:00:34;;;;;;;6.85;5.32;;;;;;;32.76;29.20;99473.47;5021174;28;20030;-84
2023/08/20 10:03:00;;;;;;;7.00;5.45;;;;;;;33.11;29.86;99467.19;5016851;28;20120;-84
2023/08/20 10:05:26;;;;;;;7.97;5.53;;;;;;;32.91;30.43;99471.47;5012344;28;20562;-84
2023/08/20 10:07:52;;;;;;;9.32;5.78;;;;;;;32.96;30.95;99475.81;5019848;28;20474;-84
2023/08/20 10:10:18;;;;;;;7.15;5.45;;;;;;;33.41;29.85;99481.78;5009242;28;20029;-84
2023/08/20 10:12:45;;;;;;;9.82;5.15;;;;;;;33.65;28.57;99472.28;5024302;28;20393;-84
2023/08/20 10:15:13;;;;;;;15.35;5.35;;;;;;;33.61;28.14;99468.78;5009101;28;20057;-84
2023/08/20 10:17:41;;;;;;;6.93;5.30;;;;;;;32.88;28.77;99462.94;5007988;28;20029;-84
2023/08/20 10:20:08;;;;;;;9.77;5.40;;;;;;;32.57;29.47;99461.16;5014884;28;20033;-84
2023/08/20 10:22:38;;;;;;;6.80;6.10;;;;;;;32.83;29.62;99452.84;5017448;28;20030;-84
2023/08/20 10:25:08;;;;;;;10.02;6.32;;;;;;;33.23;29.24;99447.16;5004291;28;20060;-84
2023/08/20 10:27:39;;;;;;;9.32;6.38;;;;;;;32.89;28.84;99436.41;5005793;28;20021;-84
2023/08/20 10:30:16;;;;;;;5.50;5.00;;;;;;;33.28;28.92;99447.28;5016792;28;20115;-85
2023/08/20 10:32:52;;;;;;;9.20;5.13;;;;;;;33.54;28.08;99448.88;5011671;28;20029;-84
2023/08/20 10:35:23;;;;;;;8.40;5.38;;;;;;;33.69;28.43;99441.03;5029837;28;20048;-84
2023/08/20 10:38:05;;;;;;;5.75;5.15;;;;;;;33.82;27.93;99446.53;5023295;28;20032;-84
2023/08/20 10:40:51;;;;;;;6.32;5.32;;;;;;;34.18;27.97;99440.88;5021287;28;20116;-84
2023/08/20 10:43:25;;;;;;;9.80;5.60;;;;;;;34.19;28.13;99438.75;4989726;28;20046;-83
2023/08/20 10:46:16;;;;;;;13.27;5.80;;;;;;;34.35;28.24;99441.16;4988386;28;20034;-86
2023/08/20 10:48:43;;;;;;;12.80;5.88;;;;;;;34.28;27.55;99435.75;5006879;28;20033;-86
2023/08/20 10:51:25;;;;;;;5.60;4.88;;;;;;;34.15;27.13;99431.06;4990957;28;20037;-85
2023/08/20 10:54:00;;;;;;;6.63;4.85;;;;;;;34.47;27.00;99432.66;4992507;28;20030;-85
2023/08/20 10:56:45;;;;;;;8.80;5.35;;;;;;;34.47;27.17;99430.53;4991159;28;20116;-85
2023/08/20 10:59:13;;;;;;;8.65;5.57;;;;;;;34.52;27.71;99429.06;5002243;28;20037;-86
2023/08/20 11:01:38;;;;;;;10.55;5.25;;;;;;;34.51;27.45;99425.38;5006898;28;20026;-86
2023/08/20 11:04:07;;;;;;;11.45;5.40;;;;;;;34.42;27.11;99423.31;5000642;28;20026;-85
2023/08/20 11:06:33;;;;;;;10.10;5.20;;;;;;;34.61;27.09;99417.31;4991388;28;20429;-85
2023/08/20 11:08:58;;;;;;;6.05;4.88;;;;;;;34.60;26.58;99415.72;4994309;28;20056;-85
2023/08/20 11:11:25;;;;;;;5.53;4.68;;;;;;;34.92;26.52;99415.13;4991743;28;20034;-85
2023/08/20 11:13:50;;;;;;;7.28;5.18;;;;;;;34.85;26.49;99416.34;4992199;28;20033;-85
2023/08/20 11:16:16;;;;;;;11.13;4.18;;;;;;;34.67;26.54;99411.59;5009199;28;20452;-86
2023/08/20 11:18:42;;;;;;;10.57;4.68;;;;;;;35.03;25.46;99405.75;4992903;28;20020;-85
2023/08/20 11:21:08;;;;;;;13.55;5.88;;;;;;;35.28;26.21;99404.25;4993592;28;20531;-85